Time;durP1;ratioP1;P1;durP2;ratioP2;P2;SDS_P1;SDS_P2;PMS_P1;PMS_P2;Temp;Humidity;BMP_temperature;BMP_pressure;BME280_temperature;BME280_humidity;BME280_pressure;Samples;Min_cycle;Max_cycle;Signal;HPM_P1;HPM_P2
2022/12/28 00:01:42;;;;;;;3.72;1.75;;;;;;;;;;5002124;28;88145;-65
2022/12/28 00:04:08;;;;;;;5.32;1.70;;;;;;;;;;5006129;28;88674;-63
2022/12/28 00:06:35;;;;;;;4.82;2.03;;;;;;;;;;5008877;28;88739;-65
2022/12/28 00:09:01;;;;;;;4.20;1.70;;;;;;;;;;4998896;28;88508;-65
2022/12/28 00:11:28;;;;;;;5.40;1.83;;;;;;;;;;4992292;28;88647;-66
2022/12/28 00:13:59;;;;;;;4.07;1.90;;;;;;;;;;5006104;28;87654;-65
2022/12/28 00:16:28;;;;;;;5.22;1.95;;;;;;;;;;5005544;28;87888;-64
2022/12/28 00:18:54;;;;;;;3.25;1.75;;;;;;;;;;5006182;28;88313;-63
2022/12/28 00:21:21;;;;;;;4.78;1.77;;;;;;;;;;5005893;28;88397;-65
2022/12/28 00:23:49;;;;;;;4.28;1.83;;;;;;;;;;5006402;28;88010;-65
2022/12/28 00:26:15;;;;;;;3.50;1.73;;;;;;;;;;5005502;28;89164;-65
2022/12/28 00:28:41;;;;;;;3.28;1.58;;;;;;;;;;5008741;28;89038;-66
2022/12/28 00:31:08;;;;;;;5.20;1.77;;;;;;;;;;5005812;28;88879;-64
2022/12/28 00:33:34;;;;;;;5.05;1.85;;;;;;;;;;5005922;28;88278;-63
2022/12/28 00:36:01;;;;;;;4.50;1.80;;;;;;;;;;5005630;28;88396;-63
2022/12/28 00:38:30;;;;;;;4.85;2.08;;;;;;;;;;5004797;28;90808;-65
2022/12/28 00:40:57;;;;;;;4.15;1.92;;;;;;;;;;5005312;28;87593;-64
2022/12/28 00:43:24;;;;;;;5.55;1.90;;;;;;;;;;5005596;28;87950;-63
2022/12/28 00:45:50;;;;;;;3.80;1.70;;;;;;;;;;5005950;28;87921;-66
2022/12/28 00:48:17;;;;;;;4.75;1.77;;;;;;;;;;5005685;28;87682;-65
2022/12/28 00:50:43;;;;;;;4.05;1.58;;;;;;;;;;5008334;28;90192;-63
2022/12/28 00:53:10;;;;;;;5.25;1.83;;;;;;;;;;5019044;28;88751;-65
2022/12/28 00:55:37;;;;;;;4.00;1.55;;;;;;;;;;5003807;28;90924;-64
2022/12/28 00:58:04;;;;;;;5.50;1.83;;;;;;;;;;5005348;28;88543;-65
2022/12/28 01:00:31;;;;;;;5.38;1.90;;;;;;;;;;5005455;28;88270;-66
2022/12/28 01:02:57;;;;;;;4.35;2.10;;;;;;;;;;5002749;28;88014;-66
2022/12/28 01:05:24;;;;;;;4.15;1.60;;;;;;;;;;4995806;28;88684;-63
2022/12/28 01:07:50;;;;;;;4.47;1.70;;;;;;;;;;5003351;28;88014;-66
2022/12/28 01:10:17;;;;;;;3.75;1.50;;;;;;;;;;5008737;28;88572;-65
2022/12/28 01:12:43;;;;;;;4.38;1.58;;;;;;;;;;5004531;28;88040;-66
2022/12/28 01:15:11;;;;;;;2.83;1.58;;;;;;;;;;5005616;28;88426;-66
2022/12/28 01:17:38;;;;;;;4.07;1.77;;;;;;;;;;5003083;28;88685;-66
2022/12/28 01:20:05;;;;;;;4.82;1.58;;;;;;;;;;5004467;28;88227;-65
2022/12/28 01:22:32;;;;;;;4.93;1.70;;;;;;;;;;5004842;28;87897;-66
2022/12/28 01:24:58;;;;;;;5.05;1.65;;;;;;;;;;5005057;28;88900;-63
2022/12/28 01:27:25;;;;;;;3.28;1.48;;;;;;;;;;5004697;28;87701;-65
2022/12/28 01:29:52;;;;;;;3.30;1.50;;;;;;;;;;5003680;28;88209;-65
2022/12/28 01:32:19;;;;;;;4.40;1.60;;;;;;;;;;5007752;28;88364;-64
2022/12/28 01:34:45;;;;;;;4.70;1.50;;;;;;;;;;5005553;28;88155;-66
2022/12/28 01:37:11;;;;;;;4.47;1.60;;;;;;;;;;5004269;28;88404;-65
2022/12/28 01:39:38;;;;;;;4.15;1.50;;;;;;;;;;5004816;28;87612;-64
2022/12/28 01:42:04;;;;;;;3.35;1.50;;;;;;;;;;4990374;28;88551;-64
2022/12/28 01:44:32;;;;;;;;;;;;;;;;;;5005283;28;89181;-66
2022/12/28 01:47:04;;;;;;;4.32;1.42;;;;;;;;;;5004109;28;106546;-63
2022/12/28 01:49:43;;;;;;;3.13;1.42;;;;;;;;;;5005167;28;88186;-66
2022/12/28 01:52:14;;;;;;;3.22;1.40;;;;;;;;;;5003613;28;88153;-66
2022/12/28 01:54:49;;;;;;;4.13;1.63;;;;;;;;;;5006435;28;89249;-65
2022/12/28 01:57:17;;;;;;;4.40;1.60;;;;;;;;;;5004112;28;88637;-63
2022/12/28 01:59:48;;;;;;;2.92;1.50;;;;;;;;;;5003839;28;89133;-64
2022/12/28 02:02:15;;;;;;;4.38;1.60;;;;;;;;;;5002131;28;88134;-65
2022/12/28 02:04:43;;;;;;;4.28;1.95;;;;;;;;;;5003502;28;89989;-63
2022/12/28 02:07:09;;;;;;;;;;;;;;;;;;5002644;28;88436;-64
2022/12/28 02:09:40;;;;;;;4.00;1.70;;;;;;;;;;5006293;28;87800;-64
2022/12/28 02:12:11;;;;;;;3.35;1.65;;;;;;;;;;5004378;28;88390;-65
2022/12/28 02:14:39;;;;;;;3.38;1.60;;;;;;;;;;5003541;28;89317;-65
2022/12/28 02:17:08;;;;;;;3.05;1.33;;;;;;;;;;5005475;28;89836;-64
2022/12/28 02:19:39;;;;;;;3.35;1.45;;;;;;;;;;4986950;28;88103;-65
2022/12/28 02:22:28;;;;;;;3.35;1.55;;;;;;;;;;5004240;28;88386;-65
2022/12/28 02:25:06;;;;;;;4.38;1.50;;;;;;;;;;5006190;28;87137;-63
2022/12/28 02:27:54;;;;;;;3.92;1.70;;;;;;;;;;5007919;28;87604;-63
2022/12/28 02:30:22;;;;;;;2.83;1.50;;;;;;;;;;5006836;28;88095;-67
2022/12/28 02:32:56;;;;;;;5.28;1.67;;;;;;;;;;5005608;28;90861;-64
2022/12/28 02:35:24;;;;;;;4.43;1.55;;;;;;;;;;5005414;28;87928;-64
2022/12/28 02:37:53;;;;;;;3.70;1.50;;;;;;;;;;5007290;28;88271;-65
2022/12/28 02:40:23;;;;;;;4.78;1.60;;;;;;;;;;5010659;28;88321;-65
2022/12/28 02:42:52;;;;;;;4.43;1.50;;;;;;;;;;5005965;28;89121;-66
2022/12/28 02:51:25;;;;;;;2.65;1.30;;;;;;;;;;5006621;28;88645;-64
2022/12/28 02:54:00;;;;;;;2.58;1.45;;;;;;;;;;4995171;28;90156;-65
2022/12/28 02:56:26;;;;;;;3.58;1.63;;;;;;;;;;5005956;28;88009;-62
2022/12/28 02:59:19;;;;;;;3.00;1.50;;;;;;;;;;5005497;28;88535;-65
2022/12/28 03:01:51;;;;;;;4.15;1.63;;;;;;;;;;5006858;28;88244;-62
2022/12/28 03:04:40;;;;;;;3.85;1.48;;;;;;;;;;5010281;28;88164;-65
2022/12/28 03:10:27;;;;;;;4.18;1.30;;;;;;;;;;5005665;28;89229;-64
2022/12/28 03:12:58;;;;;;;2.75;1.50;;;;;;;;;;5004645;28;88430;-63
2022/12/28 03:15:30;;;;;;;3.20;1.40;;;;;;;;;;5007361;28;88389;-64
2022/12/28 03:31:49;;;;;;;3.85;1.40;;;;;;;;;;4992739;28;118266;-64
2022/12/28 03:34:16;;;;;;;2.72;1.30;;;;;;;;;;5005137;28;88011;-64
2022/12/28 03:36:45;;;;;;;4.78;1.30;;;;;;;;;;5004657;28;90101;-63
2022/12/28 03:39:18;;;;;;;2.45;1.33;;;;;;;;;;5005254;28;88144;-65
2022/12/28 03:44:44;;;;;;;2.80;1.30;;;;;;;;;;5007261;28;87860;-63
2022/12/28 03:47:12;;;;;;;2.45;1.35;;;;;;;;;;5006332;28;87650;-62
2022/12/28 03:49:38;;;;;;;3.42;1.40;;;;;;;;;;5008146;28;90160;-64
2022/12/28 03:52:06;;;;;;;3.58;1.52;;;;;;;;;;5004051;28;90136;-64
2022/12/28 03:54:33;;;;;;;2.22;1.30;;;;;;;;;;5005413;28;90650;-65
2022/12/28 03:57:00;;;;;;;3.38;1.40;;;;;;;;;;5004834;28;90214;-64
2022/12/28 03:59:30;;;;;;;3.45;1.40;;;;;;;;;;5005275;28;89686;-65
2022/12/28 04:01:59;;;;;;;2.85;1.30;;;;;;;;;;5001642;28;89097;-67
2022/12/28 04:04:28;;;;;;;2.65;1.25;;;;;;;;;;5005050;28;89301;-62
2022/12/28 04:06:54;;;;;;;3.35;1.40;;;;;;;;;;5006332;28;88089;-63
2022/12/28 04:09:21;;;;;;;3.03;1.50;;;;;;;;;;5005745;28;90225;-64
2022/12/28 04:11:47;;;;;;;3.67;1.30;;;;;;;;;;5007584;28;90768;-63
2022/12/28 04:14:21;;;;;;;2.53;1.35;;;;;;;;;;5005021;28;88212;-66
2022/12/28 04:16:48;;;;;;;2.92;1.30;;;;;;;;;;5004010;28;89006;-64
2022/12/28 04:19:16;;;;;;;2.95;1.40;;;;;;;;;;5004850;28;89297;-63
2022/12/28 04:21:42;;;;;;;3.53;1.70;;;;;;;;;;5004563;28;87788;-65
2022/12/28 04:24:09;;;;;;;2.72;1.30;;;;;;;;;;5004769;28;90463;-64
2022/12/28 04:26:36;;;;;;;3.53;1.50;;;;;;;;;;5005750;28;87962;-65
2022/12/28 04:29:02;;;;;;;3.42;1.33;;;;;;;;;;5004680;28;89827;-65
2022/12/28 04:31:32;;;;;;;2.88;1.40;;;;;;;;;;5005409;28;88040;-64
2022/12/28 04:34:05;;;;;;;2.08;1.30;;;;;;;;;;5007961;28;89546;-64
2022/12/28 04:36:37;;;;;;;2.53;1.30;;;;;;;;;;5004120;28;90880;-63
2022/12/28 04:39:06;;;;;;;3.58;1.55;;;;;;;;;;5004473;28;88959;-65
2022/12/28 04:41:32;;;;;;;1.90;1.25;;;;;;;;;;5005478;28;90735;-65
2022/12/28 04:43:59;;;;;;;3.90;1.30;;;;;;;;;;5005880;28;87776;-66
2022/12/28 04:46:26;;;;;;;3.20;1.30;;;;;;;;;;5004617;28;88130;-63
2022/12/28 04:48:52;;;;;;;2.20;1.25;;;;;;;;;;5005757;28;88044;-65
2022/12/28 04:51:20;;;;;;;2.47;1.20;;;;;;;;;;5005373;28;88184;-66
2022/12/28 04:53:46;;;;;;;;;;;;;;;;;;5005839;28;87925;-64
2022/12/28 04:56:13;;;;;;;2.83;1.40;;;;;;;;;;5008714;28;116938;-65
2022/12/28 04:58:40;;;;;;;3.05;1.60;;;;;;;;;;5006154;28;86975;-66
2022/12/28 05:01:08;;;;;;;2.50;1.27;;;;;;;;;;5002025;28;87547;-65
2022/12/28 05:03:36;;;;;;;2.95;1.40;;;;;;;;;;5005250;28;88027;-64
2022/12/28 05:06:03;;;;;;;3.95;1.20;;;;;;;;;;5004640;28;89816;-65
2022/12/28 05:08:30;;;;;;;3.25;1.50;;;;;;;;;;5005554;28;88918;-63
2022/12/28 05:11:00;;;;;;;2.55;1.33;;;;;;;;;;5004853;28;88130;-65
2022/12/28 05:13:27;;;;;;;2.38;1.30;;;;;;;;;;5005045;28;87617;-64
2022/12/28 05:15:54;;;;;;;2.47;1.20;;;;;;;;;;5005438;28;88111;-65
2022/12/28 05:18:20;;;;;;;2.00;1.20;;;;;;;;;;5008039;28;88221;-64
2022/12/28 05:20:46;;;;;;;2.38;1.20;;;;;;;;;;5005168;28;88493;-65
2022/12/28 05:23:13;;;;;;;2.35;1.30;;;;;;;;;;5005540;28;87983;-65
2022/12/28 05:25:39;;;;;;;2.05;1.23;;;;;;;;;;5005392;28;87633;-65
2022/12/28 05:28:06;;;;;;;3.08;1.35;;;;;;;;;;5003979;28;88080;-63
2022/12/28 05:30:32;;;;;;;3.10;1.40;;;;;;;;;;5004373;28;89074;-63
2022/12/28 05:32:59;;;;;;;2.95;1.50;;;;;;;;;;5005494;28;87805;-64
2022/12/28 05:35:25;;;;;;;3.60;1.50;;;;;;;;;;5005307;28;88603;-64
2022/12/28 05:37:51;;;;;;;2.78;1.27;;;;;;;;;;5005736;28;88231;-64
2022/12/28 05:40:18;;;;;;;2.03;1.30;;;;;;;;;;5005191;28;88553;-67
2022/12/28 05:42:44;;;;;;;2.83;1.25;;;;;;;;;;5004768;28;87805;-63
2022/12/28 05:45:16;;;;;;;2.20;1.23;;;;;;;;;;5005213;28;87944;-64
2022/12/28 05:47:43;;;;;;;2.90;1.38;;;;;;;;;;5003647;28;89994;-65
2022/12/28 05:50:09;;;;;;;2.80;1.30;;;;;;;;;;5004947;28;88635;-66
2022/12/28 05:52:35;;;;;;;2.47;1.27;;;;;;;;;;5003833;28;88011;-65
2022/12/28 05:55:04;;;;;;;3.40;1.30;;;;;;;;;;5004453;28;88629;-65
2022/12/28 05:57:30;;;;;;;2.72;1.30;;;;;;;;;;5004471;28;87930;-64
2022/12/28 05:59:57;;;;;;;1.40;1.10;;;;;;;;;;5011388;28;87644;-64
2022/12/28 06:02:26;;;;;;;3.22;1.48;;;;;;;;;;5005242;28;88675;-65
2022/12/28 06:04:53;;;;;;;1.95;1.30;;;;;;;;;;5008067;28;87621;-64
2022/12/28 06:07:19;;;;;;;2.75;1.20;;;;;;;;;;5007849;28;88914;-63
2022/12/28 06:09:46;;;;;;;3.70;1.40;;;;;;;;;;5008143;28;87787;-64
2022/12/28 06:12:12;;;;;;;2.80;1.25;;;;;;;;;;5008293;28;87771;-67
2022/12/28 06:14:38;;;;;;;2.35;1.20;;;;;;;;;;5008239;28;87960;-70
2022/12/28 06:17:05;;;;;;;3.08;1.30;;;;;;;;;;5007640;28;89318;-65
2022/12/28 06:19:31;;;;;;;4.07;1.40;;;;;;;;;;5007621;28;88664;-65
2022/12/28 06:21:58;;;;;;;2.95;1.20;;;;;;;;;;5010884;28;88892;-65
2022/12/28 06:24:24;;;;;;;1.70;1.13;;;;;;;;;;5008338;28;87549;-65
2022/12/28 06:26:50;;;;;;;1.83;1.27;;;;;;;;;;5007758;28;88111;-65
2022/12/28 06:29:17;;;;;;;2.42;1.30;;;;;;;;;;5008089;28;88375;-64
2022/12/28 06:31:45;;;;;;;2.10;1.10;;;;;;;;;;5007826;28;87937;-65
2022/12/28 06:34:12;;;;;;;2.38;1.25;;;;;;;;;;5007769;28;88027;-62
2022/12/28 06:36:39;;;;;;;2.47;1.30;;;;;;;;;;5008054;28;88280;-65
2022/12/28 06:39:07;;;;;;;1.83;1.15;;;;;;;;;;5007501;28;88099;-64
2022/12/28 06:41:33;;;;;;;2.17;1.30;;;;;;;;;;5007607;28;88903;-65
2022/12/28 06:44:00;;;;;;;2.58;1.20;;;;;;;;;;5009701;28;89735;-64
2022/12/28 06:46:27;;;;;;;2.45;1.35;;;;;;;;;;5006958;28;89273;-63
2022/12/28 06:48:54;;;;;;;2.08;1.10;;;;;;;;;;5007711;28;88548;-64
2022/12/28 06:51:23;;;;;;;2.67;1.13;;;;;;;;;;5007346;28;87879;-64
2022/12/28 06:53:50;;;;;;;2.40;1.30;;;;;;;;;;5007073;28;88087;-66
2022/12/28 06:56:18;;;;;;;2.17;1.10;;;;;;;;;;5006947;28;88321;-65
2022/12/28 06:58:45;;;;;;;1.63;1.02;;;;;;;;;;5007560;28;87610;-66
2022/12/28 07:01:18;;;;;;;2.13;1.23;;;;;;;;;;5004174;28;88076;-65
2022/12/28 07:03:46;;;;;;;1.58;1.05;;;;;;;;;;4996902;28;88357;-64
2022/12/28 07:06:13;;;;;;;3.38;1.40;;;;;;;;;;5008866;28;87738;-65
2022/12/28 07:08:39;;;;;;;2.17;1.10;;;;;;;;;;5006747;28;89090;-65
2022/12/28 07:11:10;;;;;;;1.98;1.10;;;;;;;;;;5006430;28;87646;-65
2022/12/28 07:13:36;;;;;;;2.78;1.20;;;;;;;;;;5007218;28;88169;-64
2022/12/28 07:16:04;;;;;;;1.75;1.00;;;;;;;;;;5006711;28;88145;-66
2022/12/28 07:18:30;;;;;;;;;;;;;;;;;;5007498;28;88115;-64
2022/12/28 07:20:58;;;;;;;1.92;1.20;;;;;;;;;;5007647;28;111297;-65
2022/12/28 07:23:28;;;;;;;2.95;1.20;;;;;;;;;;5007020;28;89074;-67
2022/12/28 07:25:56;;;;;;;1.75;1.00;;;;;;;;;;5007565;28;86945;-65
2022/12/28 07:28:22;;;;;;;2.55;1.20;;;;;;;;;;5009664;28;87924;-64
2022/12/28 07:30:49;;;;;;;2.22;1.20;;;;;;;;;;5006500;28;88582;-65
2022/12/28 07:33:15;;;;;;;1.45;1.02;;;;;;;;;;5006348;28;88539;-65
2022/12/28 07:35:42;;;;;;;2.25;1.10;;;;;;;;;;5006600;28;88414;-65
2022/12/28 07:38:08;;;;;;;2.75;1.27;;;;;;;;;;5006823;28;87879;-66
2022/12/28 07:40:34;;;;;;;3.28;1.58;;;;;;;;;;5005053;28;88240;-66
2022/12/28 07:43:01;;;;;;;1.27;1.00;;;;;;;;;;5006427;28;88679;-66
2022/12/28 07:45:27;;;;;;;1.90;1.10;;;;;;;;;;5006618;28;88117;-64
2022/12/28 07:47:54;;;;;;;2.30;1.10;;;;;;;;;;5009860;28;88896;-66
2022/12/28 07:50:20;;;;;;;2.55;1.20;;;;;;;;;;5007184;28;87319;-66
2022/12/28 07:52:46;;;;;;;2.40;1.05;;;;;;;;;;5005808;28;88108;-64
2022/12/28 07:55:13;;;;;;;2.45;1.00;;;;;;;;;;5006519;28;88301;-66
2022/12/28 07:57:39;;;;;;;1.80;1.02;;;;;;;;;;5005511;28;88728;-66
2022/12/28 08:00:06;;;;;;;1.50;1.10;;;;;;;;;;5006652;28;89216;-65
2022/12/28 08:02:37;;;;;;;1.98;1.10;;;;;;;;;;5005270;28;87655;-66
2022/12/28 08:05:04;;;;;;;1.75;1.10;;;;;;;;;;5006366;28;87671;-66
2022/12/28 08:07:30;;;;;;;1.90;1.10;;;;;;;;;;5005889;28;88078;-66
2022/12/28 08:09:57;;;;;;;1.52;1.10;;;;;;;;;;5009112;28;88400;-66
2022/12/28 08:12:23;;;;;;;1.20;1.00;;;;;;;;;;5005938;28;88026;-65
2022/12/28 08:14:50;;;;;;;1.55;1.10;;;;;;;;;;5006547;28;87665;-66
2022/12/28 08:17:16;;;;;;;2.50;1.30;;;;;;;;;;5005499;28;88161;-64
2022/12/28 08:19:46;;;;;;;1.88;1.10;;;;;;;;;;5006387;28;88303;-65
2022/12/28 08:22:13;;;;;;;1.77;1.00;;;;;;;;;;5004297;28;89079;-66
2022/12/28 08:24:39;;;;;;;2.30;1.30;;;;;;;;;;5005056;28;87592;-66
2022/12/28 08:27:06;;;;;;;2.17;1.10;;;;;;;;;;5005444;28;88152;-65
2022/12/28 08:29:32;;;;;;;1.98;1.30;;;;;;;;;;5006123;28;88748;-68
2022/12/28 08:31:58;;;;;;;1.63;1.20;;;;;;;;;;5008482;28;88108;-64
2022/12/28 08:34:28;;;;;;;1.90;1.00;;;;;;;;;;5005725;28;88402;-67
2022/12/28 08:36:54;;;;;;;1.90;1.20;;;;;;;;;;5005607;28;88030;-66
2022/12/28 08:39:21;;;;;;;3.08;1.30;;;;;;;;;;5006234;28;88680;-66
2022/12/28 08:41:47;;;;;;;1.48;1.10;;;;;;;;;;5005105;28;88246;-65
2022/12/28 08:44:14;;;;;;;2.05;1.15;;;;;;;;;;5005776;28;87634;-64
2022/12/28 08:46:40;;;;;;;1.60;1.15;;;;;;;;;;5004774;28;88804;-67
2022/12/28 08:49:07;;;;;;;2.38;1.30;;;;;;;;;;5004287;28;88312;-68
2022/12/28 08:51:38;;;;;;;1.85;1.10;;;;;;;;;;5005477;28;88219;-65
2022/12/28 08:54:05;;;;;;;1.90;1.17;;;;;;;;;;5008233;28;89001;-65
2022/12/28 08:56:33;;;;;;;2.35;1.30;;;;;;;;;;5005508;28;88247;-66
2022/12/28 08:59:00;;;;;;;2.08;1.30;;;;;;;;;;5004788;28;88460;-66
2022/12/28 09:01:27;;;;;;;1.92;1.23;;;;;;;;;;5001473;28;88763;-63
2022/12/28 09:03:56;;;;;;;2.63;1.10;;;;;;;;;;5005505;28;87763;-65
2022/12/28 09:06:24;;;;;;;1.92;1.15;;;;;;;;;;5004254;28;88050;-65
2022/12/28 09:08:51;;;;;;;2.20;1.30;;;;;;;;;;5004304;28;88762;-65
2022/12/28 09:11:33;;;;;;;2.45;1.35;;;;;;;;;;5002485;28;88558;-66
2022/12/28 09:14:00;;;;;;;1.85;1.10;;;;;;;;;;5004464;28;88774;-67
2022/12/28 09:16:27;;;;;;;1.55;1.05;;;;;;;;;;5007014;28;88487;-67
2022/12/28 09:18:54;;;;;;;2.55;1.20;;;;;;;;;;5003512;28;88258;-67
2022/12/28 09:21:22;;;;;;;2.00;1.10;;;;;;;;;;5004240;28;88395;-66
2022/12/28 09:23:48;;;;;;;1.55;1.10;;;;;;;;;;5004665;28;87821;-66
2022/12/28 09:26:15;;;;;;;1.77;1.00;;;;;;;;;;5004341;28;88217;-66
2022/12/28 09:28:45;;;;;;;1.85;1.05;;;;;;;;;;5005452;28;87409;-63
2022/12/28 09:31:12;;;;;;;2.67;1.10;;;;;;;;;;5003664;28;88334;-66
2022/12/28 09:36:43;;;;;;;2.40;1.50;;;;;;;;;;5003854;28;89333;-68
2022/12/28 09:39:15;;;;;;;2.50;1.40;;;;;;;;;;5005558;28;87883;-64
2022/12/28 09:41:53;;;;;;;1.77;1.10;;;;;;;;;;5002503;28;89842;-64
2022/12/28 09:44:26;;;;;;;2.60;1.30;;;;;;;;;;5004321;28;87920;-66
2022/12/28 09:46:52;;;;;;;1.48;1.15;;;;;;;;;;5004594;28;88532;-64
2022/12/28 09:49:22;;;;;;;2.88;1.15;;;;;;;;;;5004409;28;88261;-66
2022/12/28 09:52:00;;;;;;;2.22;1.20;;;;;;;;;;5004001;28;87598;-66
2022/12/28 09:54:27;;;;;;;1.58;1.20;;;;;;;;;;5004879;28;87041;-66
2022/12/28 09:56:54;;;;;;;2.97;1.30;;;;;;;;;;5004093;28;88387;-66
2022/12/28 09:59:22;;;;;;;1.73;1.25;;;;;;;;;;5007117;28;87942;-68
2022/12/28 10:01:53;;;;;;;1.90;1.20;;;;;;;;;;5003102;28;89399;-66
2022/12/28 10:04:20;;;;;;;2.63;1.20;;;;;;;;;;5004047;28;87919;-68
2022/12/28 10:06:46;;;;;;;2.83;1.23;;;;;;;;;;5003831;28;88030;-65
2022/12/28 10:09:27;;;;;;;2.50;1.25;;;;;;;;;;5004053;28;88616;-67
2022/12/28 10:11:54;;;;;;;3.75;1.20;;;;;;;;;;5003890;28;87753;-65
2022/12/28 10:14:33;;;;;;;1.85;1.35;;;;;;;;;;5004152;28;88612;-66
2022/12/28 10:16:59;;;;;;;2.13;1.40;;;;;;;;;;5004413;28;89012;-67
2022/12/28 10:19:27;;;;;;;2.00;1.20;;;;;;;;;;5004286;28;87322;-65
2022/12/28 10:21:59;;;;;;;1.67;1.35;;;;;;;;;;5006669;28;88033;-66
2022/12/28 10:24:26;;;;;;;2.35;1.40;;;;;;;;;;5004127;28;87939;-66
2022/12/28 10:26:58;;;;;;;2.20;1.33;;;;;;;;;;5002926;28;88809;-66
2022/12/28 10:29:25;;;;;;;2.47;1.23;;;;;;;;;;5003860;28;88368;-64
2022/12/28 10:32:02;;;;;;;2.00;1.20;;;;;;;;;;5003395;28;88919;-66
2022/12/28 10:34:30;;;;;;;1.85;1.38;;;;;;;;;;5003501;28;88174;-68
2022/12/28 10:37:12;;;;;;;2.40;1.30;;;;;;;;;;5003605;28;88013;-66
2022/12/28 10:39:46;;;;;;;2.75;1.40;;;;;;;;;;5003969;28;88009;-65
2022/12/28 10:42:19;;;;;;;3.35;1.50;;;;;;;;;;5003408;28;88257;-65
2022/12/28 10:44:47;;;;;;;2.40;1.50;;;;;;;;;;5006914;28;87585;-66
2022/12/28 10:47:15;;;;;;;2.75;1.30;;;;;;;;;;5006849;28;88000;-65
2022/12/28 10:49:47;;;;;;;2.38;1.48;;;;;;;;;;5007059;28;88423;-67
2022/12/28 10:52:34;;;;;;;2.38;1.30;;;;;;;;;;5006318;28;88922;-65
2022/12/28 10:55:00;;;;;;;2.33;1.30;;;;;;;;;;5007485;28;88700;-66
2022/12/28 10:57:33;;;;;;;3.45;1.60;;;;;;;;;;5005828;28;87984;-66
2022/12/28 11:00:13;;;;;;;2.42;1.58;;;;;;;;;;5006535;28;87878;-67
2022/12/28 11:02:42;;;;;;;2.72;1.45;;;;;;;;;;5002283;28;88458;-67
2022/12/28 11:05:17;;;;;;;3.40;1.70;;;;;;;;;;5006771;28;88819;-66
2022/12/28 11:07:44;;;;;;;2.85;1.52;;;;;;;;;;5008477;28;88000;-65
2022/12/28 11:10:14;;;;;;;2.22;1.25;;;;;;;;;;5007065;28;88505;-66
2022/12/28 11:12:42;;;;;;;1.58;1.20;;;;;;;;;;5006382;28;88110;-65
2022/12/28 11:15:12;;;;;;;2.13;1.30;;;;;;;;;;5006317;28;88102;-66
2022/12/28 11:17:39;;;;;;;3.28;1.40;;;;;;;;;;5006103;28;89573;-65
2022/12/28 11:20:07;;;;;;;2.05;1.20;;;;;;;;;;5006208;28;87972;-66
2022/12/28 11:22:33;;;;;;;3.00;1.55;;;;;;;;;;5006146;28;88040;-64
2022/12/28 11:25:00;;;;;;;2.78;1.58;;;;;;;;;;5006448;28;88701;-66
2022/12/28 11:27:27;;;;;;;1.70;1.20;;;;;;;;;;5006108;28;87717;-65
2022/12/28 11:29:54;;;;;;;2.83;1.30;;;;;;;;;;5009189;28;88144;-67
2022/12/28 11:32:23;;;;;;;2.15;1.40;;;;;;;;;;5005776;28;87598;-66
2022/12/28 11:34:50;;;;;;;1.20;1.10;;;;;;;;;;5006722;28;88568;-66
2022/12/28 11:37:17;;;;;;;1.55;1.20;;;;;;;;;;5005635;28;88715;-65
2022/12/28 11:39:45;;;;;;;2.78;1.25;;;;;;;;;;5006339;28;87652;-64
2022/12/28 11:42:31;;;;;;;1.15;1.05;;;;;;;;;;5005256;28;88666;-65
2022/12/28 11:45:14;;;;;;;2.05;1.30;;;;;;;;;;5006306;28;88714;-66
2022/12/28 11:47:40;;;;;;;2.28;1.40;;;;;;;;;;5005826;28;87939;-66
2022/12/28 11:50:25;;;;;;;2.90;1.30;;;;;;;;;;5008990;28;88414;-66
2022/12/28 11:52:52;;;;;;;2.00;1.10;;;;;;;;;;5005088;28;87650;-66
2022/12/28 11:55:25;;;;;;;2.72;1.20;;;;;;;;;;5006044;28;87902;-64
2022/12/28 11:57:52;;;;;;;1.90;1.10;;;;;;;;;;5004975;28;88348;-65
2022/12/28 12:00:19;;;;;;;;;;;;;;;;;;5005084;28;87102;-66
2022/12/28 12:02:50;;;;;;;2.10;1.40;;;;;;;;;;5004316;28;116750;-66
2022/12/28 12:05:38;;;;;;;2.35;1.45;;;;;;;;;;5006095;28;88439;-66
2022/12/28 12:08:10;;;;;;;2.45;1.10;;;;;;;;;;5005094;28;88799;-66
2022/12/28 12:10:38;;;;;;;1.42;1.10;;;;;;;;;;5005619;28;88749;-66
2022/12/28 12:13:23;;;;;;;1.63;1.20;;;;;;;;;;5008445;28;88490;-65
2022/12/28 12:15:51;;;;;;;2.10;1.05;;;;;;;;;;5005720;28;88183;-64
2022/12/28 12:18:23;;;;;;;1.90;1.20;;;;;;;;;;5005217;28;88310;-68
2022/12/28 12:20:54;;;;;;;2.13;1.20;;;;;;;;;;5005276;28;87926;-65
2022/12/28 12:23:39;;;;;;;2.33;1.20;;;;;;;;;;5005094;28;87977;-66
2022/12/28 12:26:15;;;;;;;1.98;1.20;;;;;;;;;;5004552;28;87727;-66
2022/12/28 12:28:46;;;;;;;2.65;1.20;;;;;;;;;;5005658;28;87843;-65
2022/12/28 12:31:17;;;;;;;2.45;1.10;;;;;;;;;;5005324;28;88400;-66
2022/12/28 12:33:46;;;;;;;3.00;1.40;;;;;;;;;;5004885;28;89928;-66
2022/12/28 12:36:29;;;;;;;2.33;1.30;;;;;;;;;;5008013;28;87814;-63
2022/12/28 12:39:09;;;;;;;2.20;1.40;;;;;;;;;;5004699;28;88809;-65
2022/12/28 12:41:52;;;;;;;1.98;1.10;;;;;;;;;;5004861;28;88017;-66
2022/12/28 12:44:33;;;;;;;1.98;1.20;;;;;;;;;;5005334;28;88051;-66
2022/12/28 12:47:11;;;;;;;2.97;1.30;;;;;;;;;;5005183;28;88948;-66
2022/12/28 12:49:53;;;;;;;3.13;1.20;;;;;;;;;;5005697;28;88285;-65
2022/12/28 12:52:43;;;;;;;1.63;1.10;;;;;;;;;;5004858;28;88893;-64
2022/12/28 12:55:12;;;;;;;2.65;1.17;;;;;;;;;;4994189;28;88503;-64
2022/12/28 12:57:45;;;;;;;1.25;1.10;;;;;;;;;;5005121;28;88517;-64
2022/12/28 13:00:13;;;;;;;2.30;1.30;;;;;;;;;;5007336;28;88779;-66
2022/12/28 13:02:43;;;;;;;2.08;1.10;;;;;;;;;;5004220;28;87709;-65
2022/12/28 13:05:20;;;;;;;2.45;1.15;;;;;;;;;;5004727;28;88876;-67
2022/12/28 13:07:47;;;;;;;2.70;1.23;;;;;;;;;;5003465;28;88219;-66
2022/12/28 13:10:22;;;;;;;2.38;1.40;;;;;;;;;;5004986;28;87939;-65
2022/12/28 13:12:48;;;;;;;1.52;1.00;;;;;;;;;;5004435;28;88067;-65
2022/12/28 13:15:16;;;;;;;3.22;1.40;;;;;;;;;;4991090;28;89307;-63
2022/12/28 13:18:06;;;;;;;2.08;1.10;;;;;;;;;;5004857;28;87329;-66
2022/12/28 13:20:53;;;;;;;2.80;1.17;;;;;;;;;;5004387;28;87947;-66
2022/12/28 13:23:21;;;;;;;2.55;1.25;;;;;;;;;;5007493;28;88544;-67
2022/12/28 13:25:48;;;;;;;1.63;1.10;;;;;;;;;;5004065;28;88493;-65
2022/12/28 13:28:15;;;;;;;;;;;;;;;;;;5004970;28;88369;-66
2022/12/28 13:30:53;;;;;;;2.90;1.25;;;;;;;;;;5005072;28;111847;-65
2022/12/28 13:33:20;;;;;;;2.38;1.30;;;;;;;;;;5004559;28;88865;-66
2022/12/28 13:35:46;;;;;;;2.45;1.20;;;;;;;;;;5004216;28;88293;-65
2022/12/28 13:38:14;;;;;;;1.83;1.13;;;;;;;;;;5004339;28;87923;-65
2022/12/28 13:40:49;;;;;;;1.67;1.10;;;;;;;;;;5003904;28;88353;-66
2022/12/28 13:43:24;;;;;;;3.42;1.10;;;;;;;;;;5005106;28;88013;-66
2022/12/28 13:45:54;;;;;;;3.53;1.20;;;;;;;;;;5007081;28;87534;-67
2022/12/28 13:48:21;;;;;;;2.88;1.15;;;;;;;;;;5004105;28;88175;-64
2022/12/28 13:50:48;;;;;;;2.38;1.20;;;;;;;;;;5003796;28;88578;-65
2022/12/28 13:53:19;;;;;;;2.80;1.23;;;;;;;;;;5003289;28;88796;-66
2022/12/28 13:55:46;;;;;;;2.20;1.10;;;;;;;;;;5004034;28;88367;-67
2022/12/28 13:58:21;;;;;;;3.15;1.20;;;;;;;;;;5003951;28;88057;-66
2022/12/28 14:00:48;;;;;;;1.88;1.02;;;;;;;;;;5003881;28;88328;-65
2022/12/28 14:03:16;;;;;;;2.03;1.15;;;;;;;;;;5003775;28;88544;-68
2022/12/28 14:05:43;;;;;;;2.03;1.50;;;;;;;;;;5006768;28;88041;-66
2022/12/28 14:08:10;;;;;;;1.92;1.23;;;;;;;;;;5004248;28;87886;-66
2022/12/28 14:10:37;;;;;;;2.65;1.10;;;;;;;;;;5003755;28;87620;-68
2022/12/28 14:13:03;;;;;;;1.80;1.10;;;;;;;;;;5003818;28;88165;-64
2022/12/28 14:15:30;;;;;;;2.22;1.20;;;;;;;;;;5003312;28;89933;-66
2022/12/28 14:18:06;;;;;;;3.08;1.20;;;;;;;;;;5003844;28;87649;-66
2022/12/28 14:20:44;;;;;;;1.67;1.10;;;;;;;;;;5006869;28;87858;-65
2022/12/28 14:23:18;;;;;;;2.90;1.20;;;;;;;;;;5007323;28;88258;-66
2022/12/28 14:25:44;;;;;;;2.67;1.40;;;;;;;;;;5007726;28;87779;-66
2022/12/28 14:28:21;;;;;;;4.50;1.40;;;;;;;;;;5010301;28;87988;-67
2022/12/28 14:30:52;;;;;;;2.55;1.15;;;;;;;;;;5007335;28;87576;-66
2022/12/28 14:33:20;;;;;;;2.53;1.40;;;;;;;;;;5007901;28;88077;-66
2022/12/28 14:35:52;;;;;;;1.67;1.15;;;;;;;;;;5007355;28;88360;-66
2022/12/28 14:38:20;;;;;;;2.45;1.05;;;;;;;;;;5005795;28;88968;-66
2022/12/28 14:40:46;;;;;;;;;;;;;;;;;;5006990;28;88652;-64
2022/12/28 14:43:17;;;;;;;2.45;1.17;;;;;;;;;;5007688;28;114003;-67
2022/12/28 14:45:45;;;;;;;4.18;1.25;;;;;;;;;;5006642;28;88905;-65
2022/12/28 14:48:34;;;;;;;2.30;1.20;;;;;;;;;;5007370;28;88122;-66
2022/12/28 14:51:15;;;;;;;3.63;1.45;;;;;;;;;;5009648;28;88379;-67
2022/12/28 14:53:43;;;;;;;3.60;1.33;;;;;;;;;;5006916;28;87773;-65
2022/12/28 14:56:11;;;;;;;2.35;1.10;;;;;;;;;;5006702;28;88480;-65
2022/12/28 14:58:39;;;;;;;3.65;1.60;;;;;;;;;;5007523;28;88742;-66
2022/12/28 15:01:08;;;;;;;3.50;1.30;;;;;;;;;;5003673;28;88013;-67
2022/12/28 15:03:54;;;;;;;2.50;1.30;;;;;;;;;;5007385;28;88261;-65
2022/12/28 15:06:21;;;;;;;4.05;1.30;;;;;;;;;;5006582;28;88333;-64
2022/12/28 15:08:51;;;;;;;3.15;1.58;;;;;;;;;;5007106;28;88259;-65
2022/12/28 15:11:18;;;;;;;3.03;1.40;;;;;;;;;;5006909;28;87878;-67
2022/12/28 15:13:45;;;;;;;2.30;1.20;;;;;;;;;;5010281;28;87858;-65
2022/12/28 15:16:12;;;;;;;2.70;1.48;;;;;;;;;;5005543;28;88018;-66
2022/12/28 15:18:44;;;;;;;3.20;1.30;;;;;;;;;;4993393;28;87536;-65
2022/12/28 15:21:11;;;;;;;4.05;1.50;;;;;;;;;;5007133;28;88055;-67
2022/12/28 15:23:37;;;;;;;4.07;1.42;;;;;;;;;;5007591;28;87663;-67
2022/12/28 15:26:07;;;;;;;2.78;1.30;;;;;;;;;;5006930;28;87915;-66
2022/12/28 15:28:34;;;;;;;3.85;1.60;;;;;;;;;;5007036;28;88861;-67